Time;durP1;ratioP1;P1;durP2;ratioP2;P2;SDS_P1;SDS_P2;PMS_P1;PMS_P2;Temp;Humidity;BMP_temperature;BMP_pressure;BME280_temperature;BME280_humidity;BME280_pressure;Samples;Min_cycle;Max_cycle;Signal;HPM_P1;HPM_P2
2022/03/26 00:00:38;;;;;;;51.67;29.20;;;4.90;86.10;;;;;;4944276;28;20049;-60
2022/03/26 00:03:13;;;;;;;49.67;28.23;;;5.00;86.80;;;;;;4928062;28;20050;-59
2022/03/26 00:05:41;;;;;;;49.10;28.17;;;5.00;86.80;;;;;;4944347;28;20571;-59
2022/03/26 00:08:07;;;;;;;51.40;28.70;;;5.00;86.60;;;;;;4943297;28;20204;-60
2022/03/26 00:10:35;;;;;;;48.17;27.65;;;4.90;86.70;;;;;;4943183;28;20053;-60
2022/03/26 00:13:03;;;;;;;49.08;29.45;;;4.90;86.70;;;;;;4943250;28;20034;-60
2022/03/26 00:15:30;;;;;;;45.05;26.70;;;5.00;87.00;;;;;;4943171;28;20552;-58
2022/03/26 00:17:57;;;;;;;;;;;4.90;87.20;;;;;;4944403;28;20564;-59
2022/03/26 00:20:24;;;;;;;52.17;29.15;;;4.90;87.50;;;;;;4942781;28;19929;-59
2022/03/26 00:22:50;;;;;;;47.33;28.00;;;4.90;88.70;;;;;;4943508;28;20034;-59
2022/03/26 00:25:17;;;;;;;;;;;4.90;88.30;;;;;;4943191;28;20046;-60
2022/03/26 00:27:45;;;;;;;45.25;26.67;;;4.80;88.40;;;;;;4941035;28;19921;-59
2022/03/26 00:30:12;;;;;;;43.53;25.92;;;4.80;88.60;;;;;;4943303;28;20571;-60
2022/03/26 00:32:39;;;;;;;57.95;29.15;;;4.80;88.70;;;;;;4942352;28;20847;-59
2022/03/26 00:35:09;;;;;;;52.38;29.90;;;4.70;89.00;;;;;;4944603;28;20066;-59
2022/03/26 00:37:38;;;;;;;50.50;29.30;;;4.70;89.90;;;;;;4940558;28;20977;-60
2022/03/26 00:40:06;;;;;;;43.97;26.75;;;4.70;90.40;;;;;;4943125;28;20069;-60
2022/03/26 00:42:33;;;;;;;47.30;28.23;;;4.60;90.40;;;;;;4941008;28;20049;-59
2022/03/26 00:45:00;;;;;;;47.67;27.25;;;4.60;90.50;;;;;;4942166;28;21049;-60
2022/03/26 00:47:27;;;;;;;;;;;4.50;90.60;;;;;;4942883;28;20042;-60
2022/03/26 00:49:54;;;;;;;49.25;28.60;;;4.50;90.80;;;;;;4943327;28;19922;-59
2022/03/26 00:52:22;;;;;;;48.22;27.08;;;4.50;90.80;;;;;;4942250;28;20494;-59
2022/03/26 00:54:49;;;;;;;53.67;28.75;;;4.50;90.90;;;;;;4942263;28;20042;-60
2022/03/26 00:57:16;;;;;;;;;;;4.50;91.10;;;;;;4943285;28;20153;-60
2022/03/26 00:59:44;;;;;;;49.30;28.33;;;4.50;91.50;;;;;;4943637;28;20474;-60
2022/03/26 01:02:11;;;;;;;49.72;29.65;;;4.40;91.70;;;;;;4941659;28;20584;-59
2022/03/26 01:04:39;;;;;;;62.22;28.35;;;4.30;92.20;;;;;;4943683;28;20296;-60
2022/03/26 01:07:06;;;;;;;51.75;28.58;;;4.20;92.60;;;;;;4942010;28;20117;-59
2022/03/26 01:09:33;;;;;;;53.60;28.40;;;4.20;92.80;;;;;;4947430;28;20034;-60
2022/03/26 01:12:00;;;;;;;57.28;31.00;;;4.20;93.00;;;;;;4945566;28;20053;-59
2022/03/26 01:14:28;;;;;;;52.35;28.50;;;4.20;93.20;;;;;;4947601;28;20039;-59
2022/03/26 01:16:55;;;;;;;54.58;30.65;;;4.20;93.40;;;;;;4945461;28;20048;-59
2022/03/26 01:19:21;;;;;;;52.60;29.63;;;4.20;93.60;;;;;;4946304;28;20046;-58
2022/03/26 01:21:48;;;;;;;;;;;4.20;93.60;;;;;;4946225;28;20043;-59
2022/03/26 01:24:15;;;;;;;58.80;30.98;;;4.30;93.60;;;;;;4946300;28;19933;-60
2022/03/26 01:26:42;;;;;;;;;;;4.20;93.60;;;;;;4947846;28;20057;-59
2022/03/26 01:29:09;;;;;;;52.08;28.67;;;4.30;93.80;;;;;;4946046;28;19928;-60
2022/03/26 01:31:37;;;;;;;50.03;28.05;;;4.20;93.90;;;;;;4946007;28;20432;-60
2022/03/26 01:34:04;;;;;;;52.38;28.85;;;4.20;94.00;;;;;;4946406;28;20053;-59
2022/03/26 01:36:31;;;;;;;52.50;29.20;;;4.20;94.40;;;;;;4946262;28;20146;-59
2022/03/26 01:38:58;;;;;;;;;;;4.20;94.70;;;;;;4947721;28;20136;-59
2022/03/26 01:41:25;;;;;;;53.55;28.67;;;4.10;95.10;;;;;;4945737;28;19984;-60
2022/03/26 01:43:52;;;;;;;50.05;28.23;;;4.00;95.50;;;;;;4945429;28;20835;-59
2022/03/26 01:46:20;;;;;;;49.38;27.48;;;4.00;95.60;;;;;;4946496;28;20053;-59
2022/03/26 01:48:49;;;;;;;50.42;28.80;;;3.90;95.80;;;;;;4945648;28;20819;-59
2022/03/26 01:51:16;;;;;;;48.92;27.27;;;3.90;96.20;;;;;;4945117;28;20053;-59
2022/03/26 01:53:49;;;;;;;52.05;27.00;;;3.90;96.30;;;;;;4944219;28;20442;-60
2022/03/26 01:56:17;;;;;;;50.70;28.67;;;3.90;96.70;;;;;;4945650;28;20352;-59
2022/03/26 01:58:44;;;;;;;44.88;26.58;;;3.90;96.80;;;;;;4946401;28;20924;-59
2022/03/26 02:01:12;;;;;;;45.80;26.55;;;3.90;96.80;;;;;;4946644;28;20046;-58
2022/03/26 02:03:40;;;;;;;47.30;27.35;;;3.90;97.00;;;;;;4943889;28;20042;-59
2022/03/26 02:06:06;;;;;;;51.35;29.50;;;3.80;96.90;;;;;;4945141;28;20775;-60
2022/03/26 02:08:34;;;;;;;50.85;28.80;;;3.80;97.30;;;;;;4945698;28;20330;-60
2022/03/26 02:11:02;;;;;;;52.40;28.58;;;3.80;97.70;;;;;;4945721;28;20866;-59
2022/03/26 02:13:52;;;;;;;49.22;28.60;;;3.80;98.00;;;;;;4945952;28;20043;-60
2022/03/26 02:16:20;;;;;;;51.28;28.90;;;3.80;98.20;;;;;;4944521;28;20145;-59
2022/03/26 02:18:48;;;;;;;49.95;26.67;;;3.70;98.60;;;;;;4944133;28;20054;-59
2022/03/26 02:21:16;;;;;;;52.13;29.90;;;3.70;98.80;;;;;;4945898;28;20096;-59
2022/03/26 02:23:44;;;;;;;54.63;29.55;;;3.70;99.20;;;;;;4943679;28;20114;-59
2022/03/26 02:26:14;;;;;;;59.83;31.70;;;3.60;99.80;;;;;;4944029;28;20054;-59
2022/03/26 02:28:45;;;;;;;55.03;30.77;;;3.60;99.90;;;;;;4945195;28;20042;-59
2022/03/26 02:31:13;;;;;;;55.78;30.50;;;3.60;99.90;;;;;;4943255;28;20320;-59
2022/03/26 02:33:41;;;;;;;56.35;29.58;;;3.60;99.90;;;;;;4944801;28;20045;-59
2022/03/26 02:36:09;;;;;;;50.95;28.55;;;3.60;99.90;;;;;;4945641;28;20042;-60
2022/03/26 02:38:37;;;;;;;56.33;29.38;;;3.60;99.90;;;;;;4943941;28;20046;-59
2022/03/26 02:41:05;;;;;;;61.03;28.83;;;3.50;99.90;;;;;;4946060;28;20046;-59
2022/03/26 02:43:33;;;;;;;59.30;30.67;;;3.50;99.90;;;;;;4944035;28;20046;-59
2022/03/26 02:46:00;;;;;;;53.15;29.60;;;3.50;99.90;;;;;;4944990;28;20160;-60
2022/03/26 02:48:27;;;;;;;53.40;28.88;;;3.50;99.90;;;;;;4943003;28;20316;-59
2022/03/26 02:50:54;;;;;;;51.42;28.63;;;3.50;99.90;;;;;;4946380;28;20045;-59
2022/03/26 02:53:22;;;;;;;52.60;28.00;;;3.50;99.90;;;;;;4943608;28;20210;-59
2022/03/26 02:55:50;;;;;;;54.30;29.20;;;3.50;99.90;;;;;;4944458;28;20044;-58
2022/03/26 02:58:17;;;;;;;53.30;29.67;;;3.50;99.90;;;;;;4945040;28;20065;-58
2022/03/26 03:00:44;;;;;;;;;;;3.50;99.90;;;;;;4945878;28;20117;-59
2022/03/26 03:03:12;;;;;;;58.03;30.17;;;3.50;99.90;;;;;;4945287;28;20747;-58
2022/03/26 03:05:39;;;;;;;56.03;28.83;;;3.50;99.90;;;;;;4943723;28;20474;-58
2022/03/26 03:08:05;;;;;;;;;;;3.50;99.90;;;;;;4944570;28;20074;-58
2022/03/26 03:10:32;;;;;;;49.70;28.30;;;3.50;99.90;;;;;;4944257;28;19930;-58
2022/03/26 03:12:59;;;;;;;51.90;28.92;;;3.50;99.90;;;;;;4944465;28;20130;-58
2022/03/26 03:15:26;;;;;;;;;;;3.40;99.90;;;;;;4944219;28;20069;-58
2022/03/26 03:17:53;;;;;;;53.42;27.90;;;3.40;99.90;;;;;;4943549;28;19921;-58
2022/03/26 03:20:20;;;;;;;;;;;3.30;99.90;;;;;;4945744;28;20377;-58
2022/03/26 03:22:46;;;;;;;52.78;29.65;;;3.30;99.90;;;;;;4945059;28;20051;-58
2022/03/26 03:25:13;;;;;;;;;;;3.20;99.90;;;;;;4942520;28;20702;-58
2022/03/26 03:27:40;;;;;;;47.55;27.20;;;3.20;99.90;;;;;;4944566;28;20433;-58
2022/03/26 03:30:08;;;;;;;49.20;29.23;;;3.20;99.90;;;;;;4943625;28;20042;-59
2022/03/26 03:32:35;;;;;;;50.13;27.58;;;3.20;99.90;;;;;;4944063;28;20058;-58
2022/03/26 03:35:02;;;;;;;;;;;3.10;99.90;;;;;;4944927;28;20235;-58
2022/03/26 03:37:28;;;;;;;49.08;28.27;;;3.10;99.90;;;;;;4944038;28;20882;-57
2022/03/26 03:39:55;;;;;;;;;;;3.10;99.90;;;;;;4943397;28;20164;-58
2022/03/26 03:42:22;;;;;;;52.15;28.05;;;3.10;99.90;;;;;;4943473;28;19930;-58
2022/03/26 03:44:49;;;;;;;55.30;28.20;;;3.10;99.90;;;;;;4944198;28;20068;-58
2022/03/26 03:47:16;;;;;;;53.40;28.40;;;3.10;99.90;;;;;;4943043;28;20046;-58
2022/03/26 03:49:43;;;;;;;61.60;30.95;;;3.10;99.90;;;;;;4944302;28;20057;-58
2022/03/26 03:52:10;;;;;;;50.83;28.83;;;3.10;99.90;;;;;;4942779;28;20117;-58
2022/03/26 03:54:37;;;;;;;;;;;3.00;99.90;;;;;;4942939;28;20274;-57
2022/03/26 03:57:04;;;;;;;53.25;26.65;;;3.00;99.90;;;;;;4942938;28;19921;-58
2022/03/26 03:59:31;;;;;;;48.45;28.17;;;3.00;99.90;;;;;;4954182;28;20050;-58
2022/03/26 04:01:57;;;;;;;;;;;3.00;99.90;;;;;;4947305;28;20065;-58
2022/03/26 04:04:25;;;;;;;52.47;28.80;;;3.00;99.90;;;;;;4943808;28;19922;-58
2022/03/26 04:06:52;;;;;;;53.22;27.98;;;3.00;99.90;;;;;;4943319;28;20485;-58
2022/03/26 04:09:19;;;;;;;;;;;2.90;99.90;;;;;;4943663;28;20147;-58
2022/03/26 04:11:46;;;;;;;58.88;30.05;;;2.90;99.90;;;;;;4941556;28;19925;-58
2022/03/26 04:14:12;;;;;;;;;;;2.90;99.90;;;;;;4944191;28;20039;-58
2022/03/26 04:16:39;;;;;;;59.13;30.05;;;2.80;99.90;;;;;;4933229;28;20693;-58
2022/03/26 04:19:06;;;;;;;51.33;28.40;;;2.80;99.90;;;;;;4943339;28;20201;-59
2022/03/26 04:21:33;;;;;;;;;;;2.70;99.90;;;;;;4943195;28;20050;-58
2022/03/26 04:24:00;;;;;;;52.40;29.52;;;2.70;99.90;;;;;;4942574;28;20099;-58
2022/03/26 04:26:27;;;;;;;56.80;31.38;;;2.80;99.90;;;;;;4943797;28;20588;-58
2022/03/26 04:28:54;;;;;;;50.72;29.35;;;2.80;99.90;;;;;;4941151;28;20038;-58
2022/03/26 04:31:20;;;;;;;;;;;2.80;99.90;;;;;;4943248;28;20038;-58
2022/03/26 04:33:47;;;;;;;51.53;27.00;;;2.80;99.90;;;;;;4943438;28;19929;-59
2022/03/26 04:36:14;;;;;;;55.53;29.63;;;2.80;99.90;;;;;;4944616;28;20555;-58
2022/03/26 04:38:41;;;;;;;52.30;29.60;;;2.70;99.90;;;;;;4942386;28;20104;-59
2022/03/26 04:41:08;;;;;;;;;;;2.70;99.90;;;;;;4944301;28;20129;-58
2022/03/26 04:43:35;;;;;;;44.97;25.10;;;2.80;99.90;;;;;;4942484;28;20048;-58
2022/03/26 04:46:02;;;;;;;;;;;2.80;99.90;;;;;;4943831;28;20221;-59
2022/03/26 04:48:29;;;;;;;44.42;25.83;;;2.80;99.90;;;;;;4940848;28;19922;-59
2022/03/26 04:50:56;;;;;;;50.40;27.90;;;2.70;99.90;;;;;;4943121;28;20050;-59
2022/03/26 04:53:23;;;;;;;53.03;28.92;;;2.70;99.90;;;;;;4942220;28;20571;-59
2022/03/26 04:55:50;;;;;;;48.80;27.67;;;2.70;99.90;;;;;;4942982;28;20084;-57
2022/03/26 04:58:17;;;;;;;43.50;25.38;;;2.70;99.90;;;;;;4943656;28;20139;-59
2022/03/26 05:00:43;;;;;;;;;;;2.70;99.90;;;;;;4944399;28;20046;-59
2022/03/26 05:03:10;;;;;;;49.85;26.48;;;2.60;99.90;;;;;;4943052;28;19948;-60
2022/03/26 05:05:37;;;;;;;51.28;28.20;;;2.60;99.90;;;;;;4941579;28;20085;-59
2022/03/26 05:08:04;;;;;;;44.10;26.73;;;2.60;99.90;;;;;;4940983;28;20034;-58
2022/03/26 05:10:32;;;;;;;44.63;25.70;;;2.60;99.90;;;;;;4943772;28;21112;-59
2022/03/26 05:12:59;;;;;;;49.67;27.50;;;2.60;99.90;;;;;;4942204;28;20038;-58
2022/03/26 05:15:29;;;;;;;46.92;26.33;;;2.60;99.90;;;;;;4940637;28;20042;-59
2022/03/26 05:17:57;;;;;;;52.90;27.73;;;2.60;99.90;;;;;;4940184;28;20049;-59
2022/03/26 05:20:25;;;;;;;47.42;26.58;;;2.60;99.90;;;;;;4940828;28;20050;-59
2022/03/26 05:22:52;;;;;;;44.10;26.40;;;2.50;99.90;;;;;;4943480;28;20587;-58
2022/03/26 05:25:20;;;;;;;51.83;29.38;;;2.50;99.90;;;;;;4944092;28;20149;-57
2022/03/26 05:27:52;;;;;;;47.60;26.08;;;2.50;99.90;;;;;;4943404;28;20344;-58
2022/03/26 05:30:20;;;;;;;52.92;26.48;;;2.40;99.90;;;;;;4942904;28;20224;-58
2022/03/26 05:32:48;;;;;;;57.55;28.30;;;2.40;99.90;;;;;;4941354;28;20073;-59
2022/03/26 05:35:15;;;;;;;44.72;26.00;;;2.40;99.90;;;;;;4943432;28;20528;-58
2022/03/26 05:37:43;;;;;;;42.38;26.15;;;2.40;99.90;;;;;;4940300;28;20383;-58
2022/03/26 05:40:11;;;;;;;46.47;25.85;;;2.30;99.90;;;;;;4943768;28;20113;-58
2022/03/26 05:42:38;;;;;;;48.53;27.20;;;2.30;99.90;;;;;;4940469;28;20042;-59
2022/03/26 05:45:07;;;;;;;49.38;26.83;;;2.40;99.90;;;;;;4943085;28;20660;-58
2022/03/26 05:47:35;;;;;;;54.78;28.02;;;2.30;99.90;;;;;;4942313;28;20543;-59
2022/03/26 05:50:04;;;;;;;50.47;27.48;;;2.40;99.90;;;;;;4943232;28;20722;-60
2022/03/26 05:52:31;;;;;;;51.88;28.88;;;2.50;99.90;;;;;;4939784;28;20049;-59
2022/03/26 05:54:58;;;;;;;45.20;25.75;;;2.50;99.90;;;;;;4943195;28;20815;-59
2022/03/26 05:57:25;;;;;;;;;;;2.60;99.90;;;;;;4946196;28;20887;-59
2022/03/26 05:59:52;;;;;;;53.20;27.37;;;2.60;99.90;;;;;;4944747;28;20244;-60
2022/03/26 06:02:21;;;;;;;52.38;29.77;;;2.70;99.90;;;;;;4944623;28;20038;-60
2022/03/26 06:04:48;;;;;;;50.40;27.67;;;2.70;99.90;;;;;;4945900;28;20246;-57
2022/03/26 06:07:15;;;;;;;48.25;25.88;;;2.80;99.90;;;;;;4945541;28;20050;-47
2022/03/26 06:09:42;;;;;;;50.25;27.42;;;2.80;99.90;;;;;;4943635;28;20203;-47
2022/03/26 06:12:09;;;;;;;53.40;28.52;;;2.90;99.90;;;;;;4943979;28;20200;-47
2022/03/26 06:14:36;;;;;;;49.60;26.70;;;3.00;99.90;;;;;;4944713;28;20050;-56
2022/03/26 06:17:04;;;;;;;55.00;28.45;;;3.00;99.90;;;;;;4944121;28;20052;-56
2022/03/26 06:19:31;;;;;;;56.33;28.80;;;3.20;99.90;;;;;;4947298;28;20117;-55
2022/03/26 06:21:58;;;;;;;45.38;27.38;;;3.30;99.90;;;;;;4945910;28;20602;-58
2022/03/26 06:24:25;;;;;;;50.97;27.38;;;3.30;99.90;;;;;;4946201;28;20145;-56
2022/03/26 06:26:52;;;;;;;47.63;26.52;;;3.50;99.90;;;;;;4943896;28;20213;-55
2022/03/26 06:29:19;;;;;;;53.20;28.63;;;3.60;99.90;;;;;;4946197;28;20035;-56
2022/03/26 06:31:46;;;;;;;47.78;25.83;;;3.70;99.90;;;;;;4946351;28;20578;-56
2022/03/26 06:34:13;;;;;;;48.97;26.63;;;3.80;99.90;;;;;;4944394;28;20050;-59
2022/03/26 06:36:40;;;;;;;50.80;27.63;;;3.90;99.90;;;;;;4945727;28;20211;-56
2022/03/26 06:39:08;;;;;;;51.15;28.38;;;4.10;99.90;;;;;;4942121;28;20050;-57
2022/03/26 06:41:38;;;;;;;49.75;27.40;;;4.20;99.90;;;;;;4944955;28;20760;-56
2022/03/26 06:44:09;;;;;;;48.75;26.40;;;4.30;99.90;;;;;;4924462;28;20196;-56
2022/03/26 06:46:38;;;;;;;46.83;27.17;;;4.60;99.90;;;;;;4928323;28;20136;-56
2022/03/26 06:49:07;;;;;;;47.55;26.95;;;4.80;99.90;;;;;;4946443;28;20045;-57
2022/03/26 06:51:35;;;;;;;46.78;25.17;;;5.10;99.90;;;;;;4945238;28;20042;-57
2022/03/26 06:54:02;;;;;;;45.17;25.45;;;5.30;99.90;;;;;;4945491;28;20057;-56
2022/03/26 06:56:29;;;;;;;48.08;27.08;;;5.60;99.90;;;;;;4943236;28;20547;-56
2022/03/26 06:58:56;;;;;;;50.83;28.35;;;5.90;99.90;;;;;;4944727;28;21095;-57
2022/03/26 07:01:22;;;;;;;;;;;6.10;99.90;;;;;;4946114;28;20097;-56
2022/03/26 07:03:56;;;;;;;53.42;26.95;;;6.10;99.90;;;;;;4951776;28;19921;-57
2022/03/26 07:06:24;;;;;;;45.13;27.10;;;6.20;99.90;;;;;;4961924;28;20042;-56
2022/03/26 07:08:51;;;;;;;53.13;29.45;;;6.20;99.90;;;;;;4959575;28;20038;-57
2022/03/26 07:11:18;;;;;;;47.03;26.67;;;6.10;99.90;;;;;;4961984;28;20034;-56
2022/03/26 07:13:45;;;;;;;53.28;30.13;;;6.10;99.90;;;;;;4961910;28;20046;-56
2022/03/26 07:16:12;;;;;;;50.80;28.75;;;6.10;99.90;;;;;;4953305;28;20029;-56
2022/03/26 07:18:39;;;;;;;48.28;28.80;;;6.10;99.90;;;;;;4962662;28;20303;-56
2022/03/26 07:21:06;;;;;;;;;;;6.20;99.90;;;;;;4958155;28;20885;-56
2022/03/26 07:23:34;;;;;;;48.63;26.65;;;6.20;99.90;;;;;;4963129;28;20363;-56
2022/03/26 07:26:02;;;;;;;53.45;27.52;;;6.30;99.90;;;;;;4961032;28;20127;-56
2022/03/26 07:28:29;;;;;;;47.78;27.08;;;6.40;99.90;;;;;;4961297;28;20038;-56
2022/03/26 07:30:56;;;;;;;48.58;28.88;;;6.50;99.90;;;;;;4960390;28;20420;-55
2022/03/26 07:33:23;;;;;;;47.78;29.55;;;6.70;99.90;;;;;;4960640;28;20281;-56
2022/03/26 07:35:50;;;;;;;;;;;7.10;99.90;;;;;;4960282;28;20390;-55
2022/03/26 07:38:17;;;;;;;57.03;29.00;;;7.50;99.40;;;;;;4960036;28;20458;-55
2022/03/26 07:40:43;;;;;;;;;;;7.80;97.80;;;;;;4961553;28;20046;-54
2022/03/26 07:43:11;;;;;;;50.97;28.88;;;8.20;97.00;;;;;;4961649;28;19932;-54
2022/03/26 07:45:37;;;;;;;;;;;8.60;96.00;;;;;;4965119;28;20140;-56
2022/03/26 07:48:05;;;;;;;56.35;28.85;;;8.90;94.70;;;;;;4958533;28;20272;-54
2022/03/26 07:50:32;;;;;;;53.40;30.55;;;9.30;93.90;;;;;;4960053;28;20468;-55
2022/03/26 07:52:59;;;;;;;54.28;29.27;;;9.60;92.80;;;;;;4961313;28;20057;-55
2022/03/26 07:55:26;;;;;;;;;;;10.00;91.50;;;;;;4956072;28;20048;-56
2022/03/26 07:57:53;;;;;;;50.85;28.15;;;10.30;90.40;;;;;;4958185;28;20247;-56
2022/03/26 08:00:21;;;;;;;;;;;10.60;88.70;;;;;;4960265;28;20061;-54
2022/03/26 08:02:47;;;;;;;52.05;31.17;;;10.90;86.80;;;;;;4955492;28;19921;-56
2022/03/26 08:05:15;;;;;;;50.15;29.73;;;11.20;86.10;;;;;;4959882;28;20042;-55
2022/03/26 08:07:42;;;;;;;49.50;28.73;;;11.30;80.30;;;;;;4958113;28;20445;-56
2022/03/26 08:10:09;;;;;;;;;;;11.40;79.80;;;;;;4973915;28;20042;-56
2022/03/26 08:12:36;;;;;;;59.92;29.30;;;11.60;79.60;;;;;;4942583;28;20823;-55
2022/03/26 08:15:04;;;;;;;50.45;29.40;;;11.80;78.40;;;;;;4955185;28;20096;-56
2022/03/26 08:17:31;;;;;;;50.47;29.52;;;12.00;77.90;;;;;;4954369;28;20112;-60
2022/03/26 08:19:58;;;;;;;52.47;31.80;;;12.30;76.90;;;;;;4959496;28;20149;-60
2022/03/26 08:22:25;;;;;;;48.63;29.88;;;12.50;75.80;;;;;;4959306;28;20046;-60
2022/03/26 08:24:52;;;;;;;57.47;31.23;;;12.80;75.30;;;;;;4958331;28;20096;-59
2022/03/26 08:27:19;;;;;;;47.70;30.05;;;13.00;70.00;;;;;;4952846;28;20046;-60
2022/03/26 08:29:46;;;;;;;;;;;13.20;69.50;;;;;;4958865;28;20770;-61
2022/03/26 08:32:13;;;;;;;52.53;31.27;;;13.40;67.90;;;;;;4959860;28;19921;-59
2022/03/26 08:34:40;;;;;;;53.33;32.13;;;13.50;68.90;;;;;;4959091;28;20556;-60
2022/03/26 08:37:07;;;;;;;58.20;31.65;;;13.60;68.50;;;;;;4959258;28;21055;-59
2022/03/26 08:39:34;;;;;;;51.95;31.40;;;13.80;66.20;;;;;;4957592;28;20049;-59
2022/03/26 08:42:02;;;;;;;57.45;32.10;;;13.80;65.40;;;;;;4957823;28;20038;-60
2022/03/26 08:44:30;;;;;;;54.50;30.58;;;13.80;63.80;;;;;;4959373;28;20325;-63
2022/03/26 08:47:02;;;;;;;44.15;28.67;;;13.80;64.20;;;;;;4955775;28;20045;-63
2022/03/26 08:49:29;;;;;;;53.92;31.48;;;13.80;63.10;;;;;;4958688;28;20049;-63
2022/03/26 08:51:55;;;;;;;;;;;14.10;63.20;;;;;;4960433;28;20041;-63
2022/03/26 08:54:22;;;;;;;45.13;29.33;;;14.20;63.10;;;;;;4958330;28;19925;-63
2022/03/26 08:56:49;;;;;;;;;;;14.50;64.20;;;;;;4953557;28;20045;-63
2022/03/26 08:59:16;;;;;;;44.88;29.05;;;14.70;63.50;;;;;;4958372;28;19932;-63
2022/03/26 09:01:43;;;;;;;44.13;28.83;;;15.20;64.90;;;;;;4958990;28;20046;-64
2022/03/26 09:04:12;;;;;;;43.70;30.08;;;15.50;60.80;;;;;;4959229;28;20214;-63
2022/03/26 09:06:40;;;;;;;46.72;29.95;;;15.70;59.80;;;;;;4960204;28;20046;-64
2022/03/26 09:09:06;;;;;;;;;;;15.90;58.50;;;;;;4960181;28;20305;-64
2022/03/26 09:11:34;;;;;;;44.80;28.98;;;16.00;58.30;;;;;;4957029;28;20044;-63
2022/03/26 09:14:02;;;;;;;49.20;30.00;;;15.90;59.00;;;;;;4959054;28;20042;-60
2022/03/26 09:16:30;;;;;;;46.80;30.88;;;16.00;58.70;;;;;;4947690;28;20041;-58
2022/03/26 09:18:57;;;;;;;43.08;29.02;;;16.10;59.30;;;;;;4953160;28;20034;-58
2022/03/26 09:21:24;;;;;;;;;;;16.30;58.10;;;;;;4957604;28;20038;-60
2022/03/26 09:23:51;;;;;;;44.05;28.77;;;16.40;58.90;;;;;;4959446;28;19968;-58
2022/03/26 09:26:18;;;;;;;45.17;29.27;;;16.60;57.70;;;;;;4958504;28;20697;-59
2022/03/26 09:28:45;;;;;;;45.25;28.85;;;16.80;56.80;;;;;;4960473;28;20048;-56
2022/03/26 09:31:12;;;;;;;48.03;29.25;;;17.00;56.80;;;;;;4962242;28;20863;-59
2022/03/26 09:33:39;;;;;;;41.85;29.27;;;17.20;54.90;;;;;;4978979;28;20042;-58
2022/03/26 09:36:06;;;;;;;44.83;29.73;;;17.40;56.00;;;;;;4963740;28;20034;-59
2022/03/26 09:38:33;;;;;;;;;;;17.60;55.90;;;;;;4963420;28;20041;-58
2022/03/26 09:41:00;;;;;;;50.97;30.90;;;17.80;55.10;;;;;;4959217;28;20439;-58
2022/03/26 09:43:29;;;;;;;49.03;31.15;;;17.90;54.50;;;;;;4957993;28;20042;-58
2022/03/26 09:45:56;;;;;;;47.30;30.85;;;18.10;52.90;;;;;;4962820;28;20273;-58
2022/03/26 09:48:23;;;;;;;43.72;31.50;;;18.20;55.10;;;;;;4960296;28;20049;-58
2022/03/26 09:50:52;;;;;;;;;;;18.20;54.00;;;;;;4964029;28;20037;-60
2022/03/26 09:53:20;;;;;;;51.53;31.27;;;18.50;53.20;;;;;;4962842;28;20010;-58
2022/03/26 09:55:47;;;;;;;44.38;30.02;;;18.60;52.50;;;;;;4960573;28;20050;-59
2022/03/26 09:58:14;;;;;;;42.47;30.20;;;18.70;53.40;;;;;;4957413;28;20387;-59
2022/03/26 10:00:48;;;;;;;47.30;30.85;;;18.80;52.70;;;;;;4960259;28;20050;-57
2022/03/26 10:03:16;;;;;;;40.70;30.50;;;19.00;51.80;;;;;;4961523;28;20164;-57
2022/03/26 10:05:44;;;;;;;44.90;30.88;;;19.00;51.80;;;;;;4964126;28;20533;-58
2022/03/26 10:08:16;;;;;;;45.70;29.80;;;19.20;51.40;;;;;;4961554;28;20111;-57
2022/03/26 10:10:46;;;;;;;51.40;32.45;;;19.20;49.60;;;;;;4960288;28;20065;-56
2022/03/26 10:13:34;;;;;;;48.58;32.97;;;19.20;49.30;;;;;;4940391;28;20979;-57
2022/03/26 10:16:02;;;;;;;;;;;18.90;50.20;;;;;;4954743;28;20207;-56
2022/03/26 10:18:40;;;;;;;45.15;30.15;;;18.80;50.80;;;;;;4961517;28;20095;-56
2022/03/26 10:21:10;;;;;;;40.65;28.92;;;18.90;50.20;;;;;;4961967;28;20053;-58
2022/03/26 10:23:41;;;;;;;36.00;26.73;;;19.00;50.20;;;;;;4953367;28;20065;-58
2022/03/26 10:26:10;;;;;;;44.25;29.83;;;19.10;50.50;;;;;;4959924;28;20143;-58
2022/03/26 10:28:40;;;;;;;43.25;30.48;;;19.30;48.00;;;;;;4953101;28;20570;-59
2022/03/26 10:34:11;;;;;;;47.33;29.58;;;19.50;48.00;;;;;;4962659;28;20239;-57
2022/03/26 10:36:44;;;;;;;39.60;26.42;;;19.60;47.50;;;;;;4961940;28;20271;-58
2022/03/26 10:39:21;;;;;;;36.42;26.42;;;19.70;47.20;;;;;;4962444;28;20063;-58
2022/03/26 10:41:49;;;;;;;;;;;19.90;45.80;;;;;;4960584;28;20144;-57
2022/03/26 10:44:17;;;;;;;39.33;25.83;;;19.80;44.40;;;;;;4945598;28;19931;-57
2022/03/26 10:46:51;;;;;;;39.78;26.40;;;19.50;45.50;;;;;;4961621;28;20049;-57
2022/03/26 10:49:30;;;;;;;40.72;25.40;;;19.20;45.40;;;;;;4962344;28;20041;-57
2022/03/26 10:52:10;;;;;;;38.45;25.17;;;19.20;47.10;;;;;;4962111;28;20061;-57
2022/03/26 10:54:36;;;;;;;35.67;24.65;;;19.20;47.90;;;;;;4961380;28;20337;-61
2022/03/26 10:57:03;;;;;;;40.33;25.67;;;19.30;46.70;;;;;;4952685;28;20031;-59
2022/03/26 10:59:31;;;;;;;37.63;23.58;;;19.50;45.60;;;;;;4960636;28;20581;-60
2022/03/26 11:01:58;;;;;;;41.47;23.75;;;19.70;45.00;;;;;;4960561;28;20053;-59
2022/03/26 11:04:27;;;;;;;45.10;25.33;;;19.90;45.20;;;;;;4961448;28;20303;-61
2022/03/26 11:06:56;;;;;;;34.58;22.67;;;20.00;45.50;;;;;;4962063;28;20042;-60
2022/03/26 11:09:25;;;;;;;38.65;24.35;;;20.20;44.00;;;;;;4960618;28;20041;-60
2022/03/26 11:11:53;;;;;;;36.28;22.65;;;20.20;43.40;;;;;;4960637;28;20041;-61
2022/03/26 11:14:27;;;;;;;33.15;22.92;;;20.30;44.10;;;;;;4960015;28;20052;-60
2022/03/26 11:17:26;;;;;;;35.47;23.10;;;20.20;44.20;;;;;;4954337;28;20045;-60
2022/03/26 11:19:59;;;;;;;30.88;21.02;;;20.40;43.70;;;;;;4961897;28;20125;-59
2022/03/26 11:22:35;;;;;;;32.67;21.48;;;20.50;44.00;;;;;;4961815;28;20041;-59
2022/03/26 11:25:30;;;;;;;30.85;21.10;;;20.70;43.60;;;;;;4961447;28;20049;-59
2022/03/26 11:28:32;;;;;;;29.75;20.02;;;20.80;41.80;;;;;;4960655;28;20026;-60
2022/03/26 11:31:24;;;;;;;31.02;20.52;;;21.00;43.60;;;;;;4968416;28;20494;-60
2022/03/26 11:34:05;;;;;;;31.20;20.92;;;21.00;42.20;;;;;;4961535;28;20563;-60
2022/03/26 11:36:33;;;;;;;32.80;20.58;;;20.90;42.70;;;;;;4949834;28;20065;-59
2022/03/26 11:39:15;;;;;;;33.20;20.30;;;20.70;42.40;;;;;;4958615;28;20065;-61
2022/03/26 11:41:44;;;;;;;30.83;20.67;;;20.70;43.30;;;;;;4960316;28;20591;-61
2022/03/26 11:44:12;;;;;;;37.55;23.52;;;20.70;42.30;;;;;;4955683;28;20098;-60
2022/03/26 11:52:32;;;;;;;39.10;22.88;;;20.50;42.50;;;;;;4960137;28;20038;-61
2022/03/26 11:55:15;;;;;;;33.80;21.55;;;20.60;39.30;;;;;;4960043;28;20034;-60
2022/03/26 11:57:42;;;;;;;30.25;20.88;;;20.70;40.20;;;;;;4954315;28;20041;-60
2022/03/26 12:00:17;;;;;;;31.40;20.55;;;20.70;42.00;;;;;;4961176;28;20160;-59
2022/03/26 12:02:52;;;;;;;33.00;21.75;;;20.80;42.10;;;;;;4960777;28;20269;-60
2022/03/26 12:08:16;;;;;;;33.42;20.55;;;21.10;41.40;;;;;;4960310;28;20547;-60
2022/03/26 12:10:44;;;;;;;36.45;22.35;;;21.20;39.70;;;;;;4941060;28;20462;-60
2022/03/26 12:13:20;;;;;;;32.58;22.50;;;21.20;40.10;;;;;;4961476;28;20034;-59
2022/03/26 12:16:02;;;;;;;31.00;20.60;;;21.20;40.30;;;;;;4950191;28;20062;-61
2022/03/26 12:18:35;;;;;;;36.63;23.08;;;21.20;39.30;;;;;;4957789;28;20234;-60
2022/03/26 12:21:09;;;;;;;34.30;23.25;;;21.20;38.30;;;;;;4958754;28;20050;-60
2022/03/26 12:23:36;;;;;;;36.70;24.25;;;20.90;38.90;;;;;;4958145;28;20141;-60
2022/03/26 12:26:07;;;;;;;34.15;23.80;;;20.70;40.50;;;;;;4961274;28;20318;-59
2022/03/26 12:28:36;;;;;;;41.20;27.35;;;20.60;41.40;;;;;;4959503;28;20203;-60
2022/03/26 12:31:13;;;;;;;39.90;24.25;;;20.50;41.20;;;;;;4961086;28;20045;-60
2022/03/26 12:33:42;;;;;;;38.35;25.05;;;20.50;42.10;;;;;;4960359;28;20058;-62
2022/03/26 12:36:10;;;;;;;38.00;24.60;;;20.60;42.00;;;;;;4959108;28;20042;-60
2022/03/26 12:38:37;;;;;;;45.80;28.83;;;20.70;41.40;;;;;;4960788;28;20353;-60
2022/03/26 12:41:06;;;;;;;43.30;27.13;;;20.90;40.90;;;;;;4959573;28;20066;-61
2022/03/26 12:43:34;;;;;;;47.88;28.48;;;20.80;42.60;;;;;;4956351;28;20103;-62
2022/03/26 12:46:09;;;;;;;42.60;27.25;;;20.60;42.50;;;;;;4960782;28;20050;-60
2022/03/26 12:48:37;;;;;;;45.45;28.00;;;20.50;42.60;;;;;;4961157;28;20258;-61
2022/03/26 12:51:06;;;;;;;44.95;27.77;;;20.40;42.70;;;;;;4960337;28;20042;-60
2022/03/26 12:53:35;;;;;;;37.75;25.83;;;20.20;43.30;;;;;;4961467;28;20254;-61
2022/03/26 12:56:06;;;;;;;37.30;27.08;;;20.00;43.60;;;;;;4963573;28;21100;-60
2022/03/26 13:01:22;;;;;;;47.35;28.38;;;20.00;44.50;;;;;;4960444;28;20038;-60
2022/03/26 13:03:50;;;;;;;46.22;29.48;;;20.10;44.40;;;;;;4963685;28;20550;-61
2022/03/26 13:06:23;;;;;;;43.58;28.50;;;20.00;43.80;;;;;;4964545;28;20049;-61